sensor_id;sensor_type;location;lat;lon;timestamp;P1;durP1;ratioP1;P2;durP2;ratioP2
54881;SDS011;40775;51.448;4.742;2023-07-31T00:01:56;5.40;;;2.05;;
54881;SDS011;40775;51.448;4.742;2023-07-31T00:04:23;3.80;;;1.83;;
54881;SDS011;40775;51.448;4.742;2023-07-31T00:06:50;3.70;;;1.67;;
54881;SDS011;40775;51.448;4.742;2023-07-31T00:09:17;6.32;;;2.72;;
54881;SDS011;40775;51.448;4.742;2023-07-31T00:11:45;5.80;;;2.30;;
54881;SDS011;40775;51.448;4.742;2023-07-31T00:14:12;5.22;;;2.05;;
54881;SDS011;40775;51.448;4.742;2023-07-31T00:16:39;5.65;;;2.47;;
54881;SDS011;40775;51.448;4.742;2023-07-31T00:19:06;5.97;;;2.53;;
54881;SDS011;40775;51.448;4.742;2023-07-31T00:21:33;5.97;;;2.13;;
54881;SDS011;40775;51.448;4.742;2023-07-31T00:24:00;5.35;;;2.40;;
54881;SDS011;40775;51.448;4.742;2023-07-31T00:26:27;5.32;;;2.30;;
54881;SDS011;40775;51.448;4.742;2023-07-31T00:28:54;4.28;;;1.98;;
54881;SDS011;40775;51.448;4.742;2023-07-31T00:31:21;5.85;;;2.28;;
54881;SDS011;40775;51.448;4.742;2023-07-31T00:33:48;4.82;;;2.42;;
54881;SDS011;40775;51.448;4.742;2023-07-31T00:36:15;4.60;;;2.13;;
54881;SDS011;40775;51.448;4.742;2023-07-31T00:38:44;4.57;;;1.83;;
54881;SDS011;40775;51.448;4.742;2023-07-31T00:41:11;4.72;;;2.08;;
54881;SDS011;40775;51.448;4.742;2023-07-31T00:43:38;7.43;;;2.53;;
54881;SDS011;40775;51.448;4.742;2023-07-31T00:46:05;3.63;;;1.88;;
54881;SDS011;40775;51.448;4.742;2023-07-31T00:48:33;6.20;;;2.20;;
54881;SDS011;40775;51.448;4.742;2023-07-31T00:51:02;6.03;;;2.05;;
54881;SDS011;40775;51.448;4.742;2023-07-31T00:53:29;4.40;;;1.95;;
54881;SDS011;40775;51.448;4.742;2023-07-31T00:55:56;4.78;;;2.17;;
54881;SDS011;40775;51.448;4.742;2023-07-31T00:58:24;5.07;;;2.33;;
54881;SDS011;40775;51.448;4.742;2023-07-31T01:00:51;5.93;;;2.03;;
54881;SDS011;40775;51.448;4.742;2023-07-31T01:03:18;4.38;;;2.20;;
54881;SDS011;40775;51.448;4.742;2023-07-31T01:05:49;6.85;;;2.80;;
54881;SDS011;40775;51.448;4.742;2023-07-31T01:08:41;6.32;;;2.22;;
54881;SDS011;40775;51.448;4.742;2023-07-31T01:11:53;5.38;;;2.20;;
54881;SDS011;40775;51.448;4.742;2023-07-31T01:14:25;5.90;;;2.00;;
54881;SDS011;40775;51.448;4.742;2023-07-31T01:16:52;7.25;;;2.33;;
54881;SDS011;40775;51.448;4.742;2023-07-31T01:19:21;4.80;;;2.28;;
54881;SDS011;40775;51.448;4.742;2023-07-31T01:27:34;5.65;;;2.42;;
54881;SDS011;40775;51.448;4.742;2023-07-31T01:30:16;4.93;;;1.85;;
54881;SDS011;40775;51.448;4.742;2023-07-31T01:32:48;6.20;;;2.50;;
54881;SDS011;40775;51.448;4.742;2023-07-31T01:35:17;5.45;;;2.45;;
54881;SDS011;40775;51.448;4.742;2023-07-31T01:37:45;4.78;;;2.10;;
54881;SDS011;40775;51.448;4.742;2023-07-31T01:40:12;7.10;;;2.65;;
54881;SDS011;40775;51.448;4.742;2023-07-31T01:42:39;9.07;;;2.67;;
54881;SDS011;40775;51.448;4.742;2023-07-31T01:45:06;5.05;;;2.35;;
54881;SDS011;40775;51.448;4.742;2023-07-31T01:47:34;6.35;;;2.53;;
54881;SDS011;40775;51.448;4.742;2023-07-31T01:50:01;3.85;;;1.80;;
54881;SDS011;40775;51.448;4.742;2023-07-31T01:52:28;4.30;;;2.00;;
54881;SDS011;40775;51.448;4.742;2023-07-31T01:54:56;6.03;;;2.28;;
54881;SDS011;40775;51.448;4.742;2023-07-31T01:57:23;5.90;;;2.40;;
54881;SDS011;40775;51.448;4.742;2023-07-31T01:59:50;6.10;;;2.53;;
54881;SDS011;40775;51.448;4.742;2023-07-31T02:02:19;5.35;;;2.47;;
54881;SDS011;40775;51.448;4.742;2023-07-31T02:04:47;4.45;;;2.15;;
54881;SDS011;40775;51.448;4.742;2023-07-31T02:07:14;4.90;;;1.95;;
54881;SDS011;40775;51.448;4.742;2023-07-31T02:09:41;5.40;;;2.35;;
54881;SDS011;40775;51.448;4.742;2023-07-31T02:12:08;4.75;;;2.28;;
54881;SDS011;40775;51.448;4.742;2023-07-31T02:14:35;4.47;;;2.55;;
54881;SDS011;40775;51.448;4.742;2023-07-31T02:17:02;4.90;;;2.30;;
54881;SDS011;40775;51.448;4.742;2023-07-31T02:19:29;6.38;;;2.80;;
54881;SDS011;40775;51.448;4.742;2023-07-31T02:21:56;5.45;;;2.47;;
54881;SDS011;40775;51.448;4.742;2023-07-31T02:24:24;6.75;;;2.55;;
54881;SDS011;40775;51.448;4.742;2023-07-31T02:26:50;5.25;;;2.22;;
54881;SDS011;40775;51.448;4.742;2023-07-31T02:29:17;6.90;;;2.28;;
54881;SDS011;40775;51.448;4.742;2023-07-31T02:31:44;5.50;;;2.30;;
54881;SDS011;40775;51.448;4.742;2023-07-31T02:34:11;7.05;;;2.65;;
54881;SDS011;40775;51.448;4.742;2023-07-31T02:36:38;6.55;;;2.53;;
54881;SDS011;40775;51.448;4.742;2023-07-31T02:39:06;6.03;;;2.45;;
54881;SDS011;40775;51.448;4.742;2023-07-31T02:41:33;6.72;;;2.53;;
54881;SDS011;40775;51.448;4.742;2023-07-31T02:44:00;5.47;;;2.17;;
54881;SDS011;40775;51.448;4.742;2023-07-31T02:46:27;6.25;;;2.22;;
54881;SDS011;40775;51.448;4.742;2023-07-31T02:48:54;5.30;;;2.50;;
54881;SDS011;40775;51.448;4.742;2023-07-31T02:51:21;6.22;;;2.45;;
54881;SDS011;40775;51.448;4.742;2023-07-31T02:53:48;6.20;;;2.35;;
54881;SDS011;40775;51.448;4.742;2023-07-31T02:56:16;9.10;;;2.92;;
54881;SDS011;40775;51.448;4.742;2023-07-31T02:58:43;6.40;;;2.60;;
54881;SDS011;40775;51.448;4.742;2023-07-31T03:01:09;4.85;;;2.35;;
54881;SDS011;40775;51.448;4.742;2023-07-31T03:03:37;5.50;;;2.25;;
54881;SDS011;40775;51.448;4.742;2023-07-31T03:06:04;6.78;;;2.85;;
54881;SDS011;40775;51.448;4.742;2023-07-31T03:08:31;5.65;;;2.33;;
54881;SDS011;40775;51.448;4.742;2023-07-31T03:10:58;5.57;;;2.55;;
54881;SDS011;40775;51.448;4.742;2023-07-31T03:13:25;4.75;;;2.30;;
54881;SDS011;40775;51.448;4.742;2023-07-31T03:15:52;4.70;;;2.05;;
54881;SDS011;40775;51.448;4.742;2023-07-31T03:18:19;6.93;;;2.65;;
54881;SDS011;40775;51.448;4.742;2023-07-31T03:20:46;6.47;;;2.58;;
54881;SDS011;40775;51.448;4.742;2023-07-31T03:23:13;6.45;;;2.20;;
54881;SDS011;40775;51.448;4.742;2023-07-31T03:25:41;4.10;;;1.85;;
54881;SDS011;40775;51.448;4.742;2023-07-31T03:28:31;5.88;;;2.30;;
54881;SDS011;40775;51.448;4.742;2023-07-31T03:30:58;4.93;;;2.55;;
54881;SDS011;40775;51.448;4.742;2023-07-31T03:33:26;4.55;;;2.22;;
54881;SDS011;40775;51.448;4.742;2023-07-31T03:35:53;3.90;;;2.22;;
54881;SDS011;40775;51.448;4.742;2023-07-31T03:38:20;5.07;;;2.05;;
54881;SDS011;40775;51.448;4.742;2023-07-31T03:40:47;6.05;;;2.78;;
54881;SDS011;40775;51.448;4.742;2023-07-31T03:43:14;4.38;;;1.67;;
54881;SDS011;40775;51.448;4.742;2023-07-31T03:45:42;5.40;;;2.17;;
54881;SDS011;40775;51.448;4.742;2023-07-31T03:48:09;9.65;;;2.78;;
54881;SDS011;40775;51.448;4.742;2023-07-31T03:50:36;4.15;;;2.03;;
54881;SDS011;40775;51.448;4.742;2023-07-31T03:53:06;4.60;;;2.10;;
54881;SDS011;40775;51.448;4.742;2023-07-31T03:55:37;4.95;;;2.00;;
54881;SDS011;40775;51.448;4.742;2023-07-31T03:58:18;5.63;;;2.17;;
54881;SDS011;40775;51.448;4.742;2023-07-31T04:00:50;8.10;;;2.45;;
54881;SDS011;40775;51.448;4.742;2023-07-31T04:03:19;7.32;;;2.03;;
54881;SDS011;40775;51.448;4.742;2023-07-31T04:05:46;5.53;;;2.13;;
54881;SDS011;40775;51.448;4.742;2023-07-31T04:08:13;5.15;;;2.42;;
54881;SDS011;40775;51.448;4.742;2023-07-31T04:10:40;5.88;;;2.28;;
54881;SDS011;40775;51.448;4.742;2023-07-31T04:13:10;8.20;;;2.22;;
54881;SDS011;40775;51.448;4.742;2023-07-31T04:15:37;4.43;;;2.00;;
54881;SDS011;40775;51.448;4.742;2023-07-31T04:18:18;4.38;;;1.73;;
54881;SDS011;40775;51.448;4.742;2023-07-31T04:20:45;4.85;;;2.22;;
54881;SDS011;40775;51.448;4.742;2023-07-31T04:23:12;6.32;;;1.88;;
54881;SDS011;40775;51.448;4.742;2023-07-31T04:25:39;4.15;;;1.80;;
54881;SDS011;40775;51.448;4.742;2023-07-31T04:28:06;6.13;;;1.80;;
54881;SDS011;40775;51.448;4.742;2023-07-31T04:30:34;3.95;;;1.63;;
54881;SDS011;40775;51.448;4.742;2023-07-31T04:33:04;9.15;;;2.45;;
54881;SDS011;40775;51.448;4.742;2023-07-31T04:35:31;7.43;;;2.70;;
54881;SDS011;40775;51.448;4.742;2023-07-31T04:37:58;5.32;;;2.30;;
54881;SDS011;40775;51.448;4.742;2023-07-31T04:40:25;4.85;;;2.25;;
54881;SDS011;40775;51.448;4.742;2023-07-31T04:42:52;9.93;;;2.80;;
54881;SDS011;40775;51.448;4.742;2023-07-31T04:45:19;2.58;;;1.42;;
54881;SDS011;40775;51.448;4.742;2023-07-31T04:47:46;4.10;;;1.77;;
54881;SDS011;40775;51.448;4.742;2023-07-31T04:50:13;4.50;;;2.10;;
54881;SDS011;40775;51.448;4.742;2023-07-31T04:52:40;6.35;;;2.38;;
54881;SDS011;40775;51.448;4.742;2023-07-31T04:55:07;4.65;;;2.20;;
54881;SDS011;40775;51.448;4.742;2023-07-31T04:57:34;4.28;;;1.80;;
54881;SDS011;40775;51.448;4.742;2023-07-31T05:00:01;6.13;;;2.47;;
54881;SDS011;40775;51.448;4.742;2023-07-31T05:02:29;3.22;;;1.65;;
54881;SDS011;40775;51.448;4.742;2023-07-31T05:04:56;4.20;;;1.90;;
54881;SDS011;40775;51.448;4.742;2023-07-31T05:07:23;4.80;;;2.03;;
54881;SDS011;40775;51.448;4.742;2023-07-31T05:09:50;3.97;;;1.90;;
54881;SDS011;40775;51.448;4.742;2023-07-31T05:12:17;4.53;;;2.08;;
54881;SDS011;40775;51.448;4.742;2023-07-31T05:14:44;5.05;;;1.85;;
54881;SDS011;40775;51.448;4.742;2023-07-31T05:17:11;4.47;;;2.03;;
54881;SDS011;40775;51.448;4.742;2023-07-31T05:19:38;5.80;;;1.98;;
54881;SDS011;40775;51.448;4.742;2023-07-31T05:22:06;5.20;;;1.98;;
54881;SDS011;40775;51.448;4.742;2023-07-31T05:24:33;3.95;;;1.60;;
54881;SDS011;40775;51.448;4.742;2023-07-31T05:27:00;3.45;;;1.50;;
54881;SDS011;40775;51.448;4.742;2023-07-31T05:29:27;5.05;;;2.03;;
54881;SDS011;40775;51.448;4.742;2023-07-31T05:31:54;5.20;;;2.15;;
54881;SDS011;40775;51.448;4.742;2023-07-31T05:34:21;3.78;;;1.33;;
54881;SDS011;40775;51.448;4.742;2023-07-31T05:36:48;4.47;;;1.80;;
54881;SDS011;40775;51.448;4.742;2023-07-31T05:39:15;4.32;;;1.70;;
54881;SDS011;40775;51.448;4.742;2023-07-31T05:41:42;6.60;;;2.03;;
54881;SDS011;40775;51.448;4.742;2023-07-31T05:44:09;4.57;;;1.70;;
54881;SDS011;40775;51.448;4.742;2023-07-31T05:46:36;2.28;;;1.20;;
54881;SDS011;40775;51.448;4.742;2023-07-31T05:49:04;2.53;;;1.08;;
54881;SDS011;40775;51.448;4.742;2023-07-31T05:51:31;4.45;;;1.50;;
54881;SDS011;40775;51.448;4.742;2023-07-31T05:53:57;2.65;;;1.23;;
54881;SDS011;40775;51.448;4.742;2023-07-31T05:56:24;3.95;;;1.55;;
54881;SDS011;40775;51.448;4.742;2023-07-31T05:58:53;2.92;;;1.20;;
54881;SDS011;40775;51.448;4.742;2023-07-31T06:01:20;2.13;;;1.20;;
54881;SDS011;40775;51.448;4.742;2023-07-31T06:03:47;3.92;;;1.30;;
54881;SDS011;40775;51.448;4.742;2023-07-31T06:06:14;3.35;;;1.30;;
54881;SDS011;40775;51.448;4.742;2023-07-31T06:08:41;2.67;;;1.27;;
54881;SDS011;40775;51.448;4.742;2023-07-31T06:11:08;4.63;;;1.40;;
54881;SDS011;40775;51.448;4.742;2023-07-31T06:13:36;3.42;;;1.48;;
54881;SDS011;40775;51.448;4.742;2023-07-31T06:16:03;3.65;;;1.42;;
54881;SDS011;40775;51.448;4.742;2023-07-31T06:18:33;4.78;;;1.00;;
54881;SDS011;40775;51.448;4.742;2023-07-31T06:21:00;3.80;;;1.23;;
54881;SDS011;40775;51.448;4.742;2023-07-31T06:23:27;4.60;;;1.38;;
54881;SDS011;40775;51.448;4.742;2023-07-31T06:25:54;4.07;;;1.30;;
54881;SDS011;40775;51.448;4.742;2023-07-31T06:28:21;4.88;;;1.58;;
54881;SDS011;40775;51.448;4.742;2023-07-31T06:30:53;4.25;;;1.23;;
54881;SDS011;40775;51.448;4.742;2023-07-31T06:33:20;4.50;;;1.52;;
54881;SDS011;40775;51.448;4.742;2023-07-31T06:35:47;3.58;;;1.30;;
54881;SDS011;40775;51.448;4.742;2023-07-31T06:38:14;3.97;;;1.35;;
54881;SDS011;40775;51.448;4.742;2023-07-31T06:40:40;3.53;;;1.13;;
54881;SDS011;40775;51.448;4.742;2023-07-31T06:43:07;6.60;;;1.75;;
54881;SDS011;40775;51.448;4.742;2023-07-31T06:45:35;3.75;;;1.38;;
54881;SDS011;40775;51.448;4.742;2023-07-31T06:48:03;4.40;;;1.30;;
54881;SDS011;40775;51.448;4.742;2023-07-31T06:50:31;1.98;;;0.88;;
54881;SDS011;40775;51.448;4.742;2023-07-31T06:52:58;3.30;;;1.50;;
54881;SDS011;40775;51.448;4.742;2023-07-31T06:55:25;3.13;;;1.40;;
54881;SDS011;40775;51.448;4.742;2023-07-31T06:57:53;2.40;;;1.10;;
54881;SDS011;40775;51.448;4.742;2023-07-31T07:00:21;2.85;;;1.30;;
54881;SDS011;40775;51.448;4.742;2023-07-31T07:02:50;3.72;;;1.35;;
54881;SDS011;40775;51.448;4.742;2023-07-31T07:05:17;2.33;;;1.35;;
54881;SDS011;40775;51.448;4.742;2023-07-31T07:07:44;4.93;;;1.75;;
54881;SDS011;40775;51.448;4.742;2023-07-31T07:10:12;2.88;;;1.30;;
54881;SDS011;40775;51.448;4.742;2023-07-31T07:12:39;1.92;;;0.98;;
54881;SDS011;40775;51.448;4.742;2023-07-31T07:15:06;2.28;;;1.00;;
54881;SDS011;40775;51.448;4.742;2023-07-31T07:17:34;4.45;;;1.48;;
54881;SDS011;40775;51.448;4.742;2023-07-31T07:20:01;3.75;;;1.10;;
54881;SDS011;40775;51.448;4.742;2023-07-31T07:22:29;2.78;;;1.08;;
54881;SDS011;40775;51.448;4.742;2023-07-31T07:24:56;2.20;;;1.00;;
54881;SDS011;40775;51.448;4.742;2023-07-31T07:27:23;2.78;;;1.27;;
54881;SDS011;40775;51.448;4.742;2023-07-31T07:29:50;2.58;;;0.90;;
54881;SDS011;40775;51.448;4.742;2023-07-31T07:32:18;1.77;;;0.82;;
54881;SDS011;40775;51.448;4.742;2023-07-31T07:34:47;1.85;;;0.73;;
54881;SDS011;40775;51.448;4.742;2023-07-31T07:37:15;2.38;;;1.08;;
54881;SDS011;40775;51.448;4.742;2023-07-31T07:39:42;3.35;;;0.95;;
54881;SDS011;40775;51.448;4.742;2023-07-31T07:42:09;1.88;;;0.82;;
54881;SDS011;40775;51.448;4.742;2023-07-31T07:44:36;2.85;;;0.98;;
54881;SDS011;40775;51.448;4.742;2023-07-31T07:47:03;3.22;;;1.00;;
54881;SDS011;40775;51.448;4.742;2023-07-31T07:49:35;2.60;;;1.10;;
54881;SDS011;40775;51.448;4.742;2023-07-31T07:52:03;3.10;;;1.10;;
54881;SDS011;40775;51.448;4.742;2023-07-31T07:54:30;3.35;;;1.10;;
54881;SDS011;40775;51.448;4.742;2023-07-31T07:56:58;3.10;;;1.38;;
54881;SDS011;40775;51.448;4.742;2023-07-31T07:59:25;2.08;;;0.70;;
54881;SDS011;40775;51.448;4.742;2023-07-31T08:01:52;2.13;;;1.10;;
54881;SDS011;40775;51.448;4.742;2023-07-31T08:04:19;2.25;;;1.20;;
54881;SDS011;40775;51.448;4.742;2023-07-31T08:06:46;2.92;;;1.05;;
54881;SDS011;40775;51.448;4.742;2023-07-31T08:09:13;3.15;;;1.08;;
54881;SDS011;40775;51.448;4.742;2023-07-31T08:11:40;3.15;;;0.93;;
54881;SDS011;40775;51.448;4.742;2023-07-31T08:14:07;4.35;;;1.30;;
54881;SDS011;40775;51.448;4.742;2023-07-31T08:16:34;2.00;;;1.00;;
54881;SDS011;40775;51.448;4.742;2023-07-31T08:19:01;2.88;;;0.98;;
54881;SDS011;40775;51.448;4.742;2023-07-31T08:21:28;2.22;;;0.82;;
54881;SDS011;40775;51.448;4.742;2023-07-31T08:23:56;2.25;;;0.77;;
54881;SDS011;40775;51.448;4.742;2023-07-31T08:26:23;1.75;;;0.93;;
54881;SDS011;40775;51.448;4.742;2023-07-31T08:28:50;2.65;;;1.20;;
54881;SDS011;40775;51.448;4.742;2023-07-31T08:31:17;1.90;;;0.70;;
54881;SDS011;40775;51.448;4.742;2023-07-31T08:33:44;1.00;;;0.65;;
54881;SDS011;40775;51.448;4.742;2023-07-31T08:36:11;2.58;;;0.98;;
54881;SDS011;40775;51.448;4.742;2023-07-31T08:38:39;3.33;;;0.80;;
54881;SDS011;40775;51.448;4.742;2023-07-31T08:41:06;3.83;;;1.35;;
54881;SDS011;40775;51.448;4.742;2023-07-31T08:43:33;1.88;;;0.90;;
54881;SDS011;40775;51.448;4.742;2023-07-31T08:46:02;2.65;;;1.10;;
54881;SDS011;40775;51.448;4.742;2023-07-31T08:48:29;1.30;;;0.82;;
54881;SDS011;40775;51.448;4.742;2023-07-31T08:50:59;4.00;;;1.15;;
54881;SDS011;40775;51.448;4.742;2023-07-31T08:53:26;2.75;;;1.23;;
54881;SDS011;40775;51.448;4.742;2023-07-31T08:55:53;2.03;;;0.70;;
54881;SDS011;40775;51.448;4.742;2023-07-31T08:58:21;3.15;;;1.10;;
54881;SDS011;40775;51.448;4.742;2023-07-31T09:00:49;1.48;;;0.70;;
54881;SDS011;40775;51.448;4.742;2023-07-31T09:03:19;2.42;;;0.90;;
54881;SDS011;40775;51.448;4.742;2023-07-31T09:05:51;1.50;;;0.80;;
54881;SDS011;40775;51.448;4.742;2023-07-31T09:08:20;1.33;;;0.80;;
54881;SDS011;40775;51.448;4.742;2023-07-31T09:10:48;1.67;;;0.70;;
54881;SDS011;40775;51.448;4.742;2023-07-31T09:13:18;1.77;;;0.73;;
54881;SDS011;40775;51.448;4.742;2023-07-31T09:15:45;0.60;;;0.40;;
54881;SDS011;40775;51.448;4.742;2023-07-31T09:18:13;1.67;;;0.88;;
54881;SDS011;40775;51.448;4.742;2023-07-31T09:20:43;2.15;;;0.80;;
54881;SDS011;40775;51.448;4.742;2023-07-31T09:23:11;2.38;;;1.02;;
54881;SDS011;40775;51.448;4.742;2023-07-31T09:25:43;2.60;;;1.10;;
54881;SDS011;40775;51.448;4.742;2023-07-31T09:28:10;2.20;;;1.30;;
54881;SDS011;40775;51.448;4.742;2023-07-31T09:30:49;2.53;;;1.02;;
54881;SDS011;40775;51.448;4.742;2023-07-31T09:33:17;2.85;;;0.68;;
54881;SDS011;40775;51.448;4.742;2023-07-31T09:35:46;1.98;;;0.88;;
54881;SDS011;40775;51.448;4.742;2023-07-31T09:38:16;2.35;;;1.27;;
54881;SDS011;40775;51.448;4.742;2023-07-31T09:40:44;2.13;;;1.02;;
54881;SDS011;40775;51.448;4.742;2023-07-31T09:43:19;2.13;;;1.27;;
54881;SDS011;40775;51.448;4.742;2023-07-31T09:45:47;1.35;;;1.00;;
54881;SDS011;40775;51.448;4.742;2023-07-31T09:48:15;2.05;;;0.98;;
54881;SDS011;40775;51.448;4.742;2023-07-31T09:50:45;1.52;;;0.60;;
54881;SDS011;40775;51.448;4.742;2023-07-31T09:53:14;2.55;;;1.02;;
54881;SDS011;40775;51.448;4.742;2023-07-31T09:55:43;1.65;;;0.65;;
54881;SDS011;40775;51.448;4.742;2023-07-31T09:58:11;2.58;;;1.00;;
54881;SDS011;40775;51.448;4.742;2023-07-31T10:00:39;2.25;;;0.77;;
54881;SDS011;40775;51.448;4.742;2023-07-31T10:03:09;2.45;;;0.95;;
54881;SDS011;40775;51.448;4.742;2023-07-31T10:05:38;2.85;;;1.30;;
54881;SDS011;40775;51.448;4.742;2023-07-31T10:08:12;2.13;;;1.23;;
54881;SDS011;40775;51.448;4.742;2023-07-31T10:10:42;2.00;;;0.82;;
54881;SDS011;40775;51.448;4.742;2023-07-31T10:13:11;1.45;;;0.80;;
54881;SDS011;40775;51.448;4.742;2023-07-31T10:15:39;4.80;;;1.08;;
54881;SDS011;40775;51.448;4.742;2023-07-31T10:18:10;3.90;;;1.20;;
54881;SDS011;40775;51.448;4.742;2023-07-31T10:20:37;2.33;;;1.08;;
54881;SDS011;40775;51.448;4.742;2023-07-31T10:23:05;1.52;;;0.80;;
54881;SDS011;40775;51.448;4.742;2023-07-31T10:25:33;1.92;;;0.90;;
54881;SDS011;40775;51.448;4.742;2023-07-31T10:28:01;2.45;;;1.05;;
54881;SDS011;40775;51.448;4.742;2023-07-31T10:30:28;2.08;;;1.02;;
54881;SDS011;40775;51.448;4.742;2023-07-31T10:32:59;1.15;;;0.80;;
54881;SDS011;40775;51.448;4.742;2023-07-31T10:35:27;2.25;;;0.93;;
54881;SDS011;40775;51.448;4.742;2023-07-31T10:37:54;1.23;;;0.70;;
54881;SDS011;40775;51.448;4.742;2023-07-31T10:40:25;1.38;;;0.75;;
54881;SDS011;40775;51.448;4.742;2023-07-31T10:42:56;1.27;;;0.77;;
54881;SDS011;40775;51.448;4.742;2023-07-31T10:45:42;2.17;;;0.70;;
54881;SDS011;40775;51.448;4.742;2023-07-31T10:48:12;1.25;;;0.85;;
54881;SDS011;40775;51.448;4.742;2023-07-31T10:50:51;3.78;;;1.30;;
54881;SDS011;40775;51.448;4.742;2023-07-31T10:53:26;1.13;;;0.57;;
54881;SDS011;40775;51.448;4.742;2023-07-31T10:56:01;2.05;;;0.70;;
54881;SDS011;40775;51.448;4.742;2023-07-31T10:58:30;2.25;;;0.98;;
54881;SDS011;40775;51.448;4.742;2023-07-31T11:01:02;1.05;;;0.55;;
54881;SDS011;40775;51.448;4.742;2023-07-31T11:03:45;1.67;;;0.70;;
54881;SDS011;40775;51.448;4.742;2023-07-31T11:06:15;2.85;;;0.98;;
54881;SDS011;40775;51.448;4.742;2023-07-31T11:08:46;2.08;;;0.75;;
54881;SDS011;40775;51.448;4.742;2023-07-31T11:11:16;1.25;;;0.57;;
54881;SDS011;40775;51.448;4.742;2023-07-31T11:13:45;1.20;;;0.80;;
54881;SDS011;40775;51.448;4.742;2023-07-31T11:16:19;2.05;;;0.88;;
54881;SDS011;40775;51.448;4.742;2023-07-31T11:18:49;1.48;;;0.85;;
54881;SDS011;40775;51.448;4.742;2023-07-31T11:21:19;1.85;;;1.08;;
54881;SDS011;40775;51.448;4.742;2023-07-31T11:23:50;1.30;;;0.75;;
54881;SDS011;40775;51.448;4.742;2023-07-31T11:26:19;2.42;;;0.80;;
54881;SDS011;40775;51.448;4.742;2023-07-31T11:28:47;3.20;;;0.75;;
54881;SDS011;40775;51.448;4.742;2023-07-31T11:31:15;2.42;;;0.98;;
54881;SDS011;40775;51.448;4.742;2023-07-31T11:33:43;0.95;;;0.50;;
54881;SDS011;40775;51.448;4.742;2023-07-31T11:36:20;1.75;;;0.65;;
54881;SDS011;40775;51.448;4.742;2023-07-31T11:38:47;1.65;;;0.90;;
54881;SDS011;40775;51.448;4.742;2023-07-31T11:41:15;4.35;;;0.90;;
54881;SDS011;40775;51.448;4.742;2023-07-31T11:43:43;2.85;;;0.90;;
54881;SDS011;40775;51.448;4.742;2023-07-31T11:46:13;2.42;;;0.75;;
54881;SDS011;40775;51.448;4.742;2023-07-31T11:48:41;2.78;;;0.80;;
54881;SDS011;40775;51.448;4.742;2023-07-31T11:51:10;1.50;;;0.82;;
54881;SDS011;40775;51.448;4.742;2023-07-31T11:53:41;2.28;;;0.82;;
54881;SDS011;40775;51.448;4.742;2023-07-31T11:56:14;1.83;;;0.68;;
54881;SDS011;40775;51.448;4.742;2023-07-31T11:58:45;1.17;;;0.57;;
54881;SDS011;40775;51.448;4.742;2023-07-31T12:01:15;1.05;;;0.65;;
54881;SDS011;40775;51.448;4.742;2023-07-31T12:03:47;1.35;;;0.82;;
54881;SDS011;40775;51.448;4.742;2023-07-31T12:06:15;1.27;;;0.82;;
54881;SDS011;40775;51.448;4.742;2023-07-31T12:08:43;1.33;;;0.70;;
54881;SDS011;40775;51.448;4.742;2023-07-31T12:11:10;3.75;;;0.85;;
54881;SDS011;40775;51.448;4.742;2023-07-31T12:13:37;2.83;;;0.73;;
54881;SDS011;40775;51.448;4.742;2023-07-31T12:16:04;1.65;;;0.60;;
54881;SDS011;40775;51.448;4.742;2023-07-31T12:18:35;2.45;;;0.80;;
54881;SDS011;40775;51.448;4.742;2023-07-31T12:21:05;1.75;;;0.90;;
54881;SDS011;40775;51.448;4.742;2023-07-31T12:23:35;1.33;;;0.60;;
54881;SDS011;40775;51.448;4.742;2023-07-31T12:26:09;2.13;;;0.90;;
54881;SDS011;40775;51.448;4.742;2023-07-31T12:28:38;2.70;;;1.00;;
54881;SDS011;40775;51.448;4.742;2023-07-31T12:31:16;1.38;;;0.85;;
54881;SDS011;40775;51.448;4.742;2023-07-31T12:33:49;2.50;;;1.10;;
54881;SDS011;40775;51.448;4.742;2023-07-31T12:36:21;1.63;;;1.00;;
54881;SDS011;40775;51.448;4.742;2023-07-31T12:38:51;1.58;;;0.65;;
54881;SDS011;40775;51.448;4.742;2023-07-31T12:41:18;1.38;;;0.70;;
54881;SDS011;40775;51.448;4.742;2023-07-31T12:43:45;1.83;;;0.60;;
54881;SDS011;40775;51.448;4.742;2023-07-31T12:46:12;2.00;;;0.68;;
54881;SDS011;40775;51.448;4.742;2023-07-31T12:48:40;2.80;;;0.73;;
54881;SDS011;40775;51.448;4.742;2023-07-31T12:51:07;2.08;;;0.90;;
54881;SDS011;40775;51.448;4.742;2023-07-31T12:53:35;1.58;;;0.88;;
54881;SDS011;40775;51.448;4.742;2023-07-31T12:56:02;2.17;;;0.70;;
54881;SDS011;40775;51.448;4.742;2023-07-31T12:58:29;2.40;;;0.80;;
54881;SDS011;40775;51.448;4.742;2023-07-31T13:00:57;2.00;;;0.70;;
54881;SDS011;40775;51.448;4.742;2023-07-31T13:03:24;1.95;;;0.63;;
54881;SDS011;40775;51.448;4.742;2023-07-31T13:05:51;2.13;;;0.90;;
54881;SDS011;40775;51.448;4.742;2023-07-31T13:08:19;1.73;;;0.90;;
54881;SDS011;40775;51.448;4.742;2023-07-31T13:10:46;1.30;;;0.70;;
54881;SDS011;40775;51.448;4.742;2023-07-31T13:13:13;1.63;;;0.60;;
54881;SDS011;40775;51.448;4.742;2023-07-31T13:15:40;1.55;;;0.77;;
54881;SDS011;40775;51.448;4.742;2023-07-31T13:18:08;1.48;;;0.70;;
54881;SDS011;40775;51.448;4.742;2023-07-31T13:20:35;2.47;;;0.50;;
54881;SDS011;40775;51.448;4.742;2023-07-31T13:23:02;1.35;;;0.60;;
54881;SDS011;40775;51.448;4.742;2023-07-31T13:25:29;1.58;;;0.60;;
54881;SDS011;40775;51.448;4.742;2023-07-31T13:27:56;1.35;;;0.68;;
54881;SDS011;40775;51.448;4.742;2023-07-31T13:30:27;1.83;;;0.98;;
54881;SDS011;40775;51.448;4.742;2023-07-31T13:32:54;1.35;;;0.55;;
54881;SDS011;40775;51.448;4.742;2023-07-31T13:35:21;1.75;;;0.73;;
54881;SDS011;40775;51.448;4.742;2023-07-31T13:37:48;1.48;;;0.70;;
54881;SDS011;40775;51.448;4.742;2023-07-31T13:40:15;3.33;;;1.20;;
54881;SDS011;40775;51.448;4.742;2023-07-31T13:42:42;0.95;;;0.60;;
54881;SDS011;40775;51.448;4.742;2023-07-31T13:45:09;1.60;;;0.80;;
54881;SDS011;40775;51.448;4.742;2023-07-31T13:47:36;1.98;;;0.80;;
54881;SDS011;40775;51.448;4.742;2023-07-31T13:50:05;1.13;;;0.57;;
54881;SDS011;40775;51.448;4.742;2023-07-31T13:52:32;1.23;;;0.60;;
54881;SDS011;40775;51.448;4.742;2023-07-31T13:54:59;1.75;;;0.88;;
54881;SDS011;40775;51.448;4.742;2023-07-31T13:57:26;1.48;;;0.68;;
54881;SDS011;40775;51.448;4.742;2023-07-31T13:59:53;1.58;;;1.00;;
54881;SDS011;40775;51.448;4.742;2023-07-31T14:02:20;1.35;;;0.75;;
54881;SDS011;40775;51.448;4.742;2023-07-31T14:04:47;1.42;;;0.85;;
54881;SDS011;40775;51.448;4.742;2023-07-31T14:07:14;1.95;;;1.10;;
54881;SDS011;40775;51.448;4.742;2023-07-31T14:09:41;2.92;;;0.90;;
54881;SDS011;40775;51.448;4.742;2023-07-31T14:12:08;1.77;;;0.80;;
54881;SDS011;40775;51.448;4.742;2023-07-31T14:14:35;2.95;;;0.88;;
54881;SDS011;40775;51.448;4.742;2023-07-31T14:17:02;1.73;;;0.70;;
54881;SDS011;40775;51.448;4.742;2023-07-31T14:19:30;1.25;;;0.60;;
54881;SDS011;40775;51.448;4.742;2023-07-31T14:21:58;0.98;;;0.75;;
54881;SDS011;40775;51.448;4.742;2023-07-31T14:24:37;1.40;;;0.70;;
54881;SDS011;40775;51.448;4.742;2023-07-31T14:27:04;1.95;;;0.85;;
54881;SDS011;40775;51.448;4.742;2023-07-31T14:29:31;1.05;;;0.60;;
54881;SDS011;40775;51.448;4.742;2023-07-31T14:31:58;1.98;;;1.08;;
54881;SDS011;40775;51.448;4.742;2023-07-31T14:34:26;1.35;;;0.70;;
54881;SDS011;40775;51.448;4.742;2023-07-31T14:36:53;1.30;;;0.80;;
54881;SDS011;40775;51.448;4.742;2023-07-31T14:39:20;1.63;;;0.60;;
54881;SDS011;40775;51.448;4.742;2023-07-31T14:41:47;1.60;;;0.60;;
54881;SDS011;40775;51.448;4.742;2023-07-31T14:44:14;4.38;;;1.08;;
54881;SDS011;40775;51.448;4.742;2023-07-31T14:46:42;1.45;;;0.70;;
54881;SDS011;40775;51.448;4.742;2023-07-31T14:49:09;1.85;;;0.85;;
54881;SDS011;40775;51.448;4.742;2023-07-31T14:51:42;2.22;;;0.73;;
54881;SDS011;40775;51.448;4.742;2023-07-31T14:54:09;4.20;;;0.80;;
54881;SDS011;40775;51.448;4.742;2023-07-31T14:56:36;1.83;;;1.00;;
54881;SDS011;40775;51.448;4.742;2023-07-31T14:59:04;1.63;;;0.70;;
54881;SDS011;40775;51.448;4.742;2023-07-31T15:01:31;12.55;;;1.48;;